• Join FlightAware (Why Join?)
  • Login
  • US Flag 
04:50AM EDT


 

Airport Tracker/Info


-or-


 

Live Flight TrackerFlight Track Log ✈ CES2827 ✈ 02-Jul-2013 ✈ ZGKL / KWL - ZJSY / SYX

Flight Track Log - Related Links

Times and Time Zones

All times are in EDT time to prevent confusion due to time zone crossing. See the CES2827 flight status page for this flight to view local times or setup timezone preferences in your user account.

Time Position Orientation Groundspeed Altitude Reporting Facility
EDT Latitude Longitude Course Direction KTS MPH feet Rate Location/Type
08:24AM 23.6353 109.8901 185° South  Level Estimated
08:25AM 23.5520 109.8824 185° South  Level Estimated
08:26AM 23.4687 109.8746 185° South  Level Estimated
08:27AM 23.3854 109.8669 185° South  Level Estimated
08:28AM 23.3021 109.8592 185° South  Level Estimated
08:29AM 23.2188 109.8515 185° South  Level Estimated
08:30AM 23.1355 109.8438 185° South  Level Estimated
08:31AM 23.0521 109.8361 185° South  Level Estimated
08:32AM 22.9688 109.8284 185° South  Level Estimated
08:33AM 22.8855 109.8208 185° South  Level Estimated
08:34AM 22.8022 109.8131 185° South  Level Estimated
08:35AM 22.7189 109.8055 185° South  Level Estimated
08:36AM 22.6356 109.7978 185° South  Level Estimated
08:37AM 22.5523 109.7902 185° South  Level Estimated
08:38AM 22.4690 109.7826 185° South  Level Estimated
08:39AM 22.3857 109.7750 185° South  Level Estimated
08:40AM 22.3023 109.7674 185° South  Level Estimated
08:41AM 22.2190 109.7598 185° South  Level Estimated
08:42AM 22.1357 109.7522 185° South  Level Estimated
08:43AM 22.0524 109.7446 185° South  Level Estimated
08:44AM 21.9691 109.7370 185° South  Level Estimated
08:45AM 21.8858 109.7295 185° South  Level Estimated
08:46AM 21.8024 109.7219 185° South  Level Estimated
08:47AM 21.7191 109.7144 185° South  Level Estimated
08:48AM 21.6358 109.7069 185° South  Level Estimated
08:49AM 21.5525 109.6993 185° South  Level Estimated
08:50AM 21.4692 109.6918 185° South  Level Estimated
08:51AM 21.3858 109.6843 185° South  Level Estimated
08:52AM 21.3025 109.6768 185° South  Level Estimated
08:53AM 21.2192 109.6693 185° South  Level Estimated
08:54AM 21.1359 109.6618 185° South  Level Estimated
08:55AM 21.0526 109.6544 185° South  Level Estimated
08:56AM 20.9692 109.6469 185° South  Level Estimated
08:57AM 20.8859 109.6395 185° South  Level Estimated
08:58AM 20.8026 109.6320 185° South  Level Estimated
08:59AM 20.7193 109.6246 185° South  Level Estimated
09:00AM 20.6360 109.6171 185° South  Level Estimated
09:01AM 20.5526 109.6097 185° South  Level Estimated
09:02AM 20.4693 109.6023 185° South  Level Estimated
09:03AM 20.3860 109.5949 185° South  Level Estimated
09:04AM 20.3027 109.5875 185° South  Level Estimated
09:05AM 20.2194 109.5801 185° South  Level Estimated
09:06AM 20.1360 109.5727 185° South  Level Estimated
09:07AM 20.0527 109.5654 185° South  Level Estimated
09:08AM 19.9694 109.5580 185° South  Level Estimated
09:09AM 19.8861 109.5506 185° South  Level Estimated
09:10AM 19.8028 109.5433 185° South  Level Estimated
09:11AM 19.6964 109.5339 185° South  Level Estimated
09:12AM 19.5900 109.5246 185° South  Level Estimated
09:13AM 19.4836 109.5152 185° South  Level Estimated
09:14AM 19.3772 109.5059 185° South  Level Estimated
09:15AM 19.2708 109.4966 185° South  Level Estimated
09:16AM 19.1644 109.4872 185° South  Level Estimated
09:17AM 19.0580 109.4779 185° South  Level Estimated
09:18AM 18.9516 109.4687 185° South  Level Estimated
09:19AM 18.8452 109.4594 185° South  Level Estimated
09:20AM 18.7388 109.4501 185° South  Level Estimated
09:21AM 18.6324 109.4408 185° South  Level Estimated
09:22AM 18.5260 109.4316 185° South  Level Estimated
09:23AM 18.4196 109.4224 185° South  Level Estimated
09:24AM 18.3132 109.4132 185° South  Level Estimated
09:25AM 18.3029 109.4123 185° South  Level Estimated
09:26AM 18.3029 109.4123 148° Southeast  Level Estimated